createdAt,value
2023-02-06T00:02:27.654Z,49.90
2023-02-06T00:04:54.289Z,49.90
2023-02-06T00:07:21.293Z,50.00
2023-02-06T00:09:49.059Z,49.90
2023-02-06T00:12:16.632Z,50.00
2023-02-06T00:14:43.284Z,49.80
2023-02-06T00:17:09.973Z,50.00
2023-02-06T00:19:38.399Z,50.00
2023-02-06T00:22:05.125Z,49.80
2023-02-06T00:24:31.805Z,49.80
2023-02-06T00:26:58.515Z,49.80
2023-02-06T00:29:25.177Z,49.80
2023-02-06T00:31:52.446Z,49.80
2023-02-06T00:34:19.856Z,49.70
2023-02-06T00:36:46.540Z,49.80
2023-02-06T00:39:13.206Z,49.70
2023-02-06T00:41:40.065Z,50.30
2023-02-06T00:44:06.754Z,49.70
2023-02-06T00:46:33.651Z,49.70
2023-02-06T00:49:00.315Z,49.70
2023-02-06T00:51:26.986Z,49.70
2023-02-06T00:53:53.677Z,49.60
2023-02-06T00:56:20.360Z,49.60
2023-02-06T00:58:47.717Z,49.60
2023-02-06T01:01:14.384Z,49.60
2023-02-06T01:03:41.074Z,49.70
2023-02-06T01:06:07.806Z,49.60
2023-02-06T01:08:40.691Z,49.60
2023-02-06T01:11:14.258Z,49.60
2023-02-06T01:13:41.104Z,49.70
2023-02-06T01:16:08.848Z,50.20
2023-02-06T01:18:35.533Z,49.60
2023-02-06T01:21:02.204Z,49.60
2023-02-06T01:23:28.946Z,49.80
2023-02-06T01:25:55.621Z,49.60
2023-02-06T01:28:22.358Z,49.50
2023-02-06T01:30:49.057Z,49.50
2023-02-06T01:33:15.828Z,49.50
2023-02-06T01:35:42.521Z,49.50
2023-02-06T01:38:09.251Z,49.50
2023-02-06T01:40:37.076Z,49.50
2023-02-06T01:43:03.800Z,49.60
2023-02-06T01:45:35.142Z,49.40
2023-02-06T01:48:03.277Z,49.50
2023-02-06T01:50:30.450Z,49.40
2023-02-06T01:52:57.167Z,49.40
2023-02-06T01:55:23.883Z,49.40
2023-02-06T01:57:52.305Z,49.40
2023-02-06T02:00:19.281Z,49.40
2023-02-06T02:02:48.393Z,49.40
2023-02-06T02:05:18.232Z,49.40
2023-02-06T02:08:01.040Z,49.30
2023-02-06T02:10:28.863Z,49.40
2023-02-06T02:12:55.565Z,49.30
2023-02-06T02:15:23.133Z,49.30
2023-02-06T02:17:56.477Z,49.40
2023-02-06T02:20:32.369Z,49.30
2023-02-06T02:23:08.208Z,49.30
2023-02-06T02:25:38.183Z,49.30
2023-02-06T02:28:05.023Z,49.30
2023-02-06T02:30:46.437Z,49.30
2023-02-06T02:33:32.016Z,49.20
2023-02-06T02:36:01.715Z,49.30
2023-02-06T02:38:40.301Z,49.20
2023-02-06T02:41:13.116Z,49.30
2023-02-06T02:43:50.368Z,49.20
2023-02-06T02:46:22.832Z,49.20
2023-02-06T02:48:50.278Z,49.20
2023-02-06T02:51:16.978Z,49.20
2023-02-06T02:53:46.803Z,49.20
2023-02-06T02:56:17.884Z,49.20
2023-02-06T02:58:44.641Z,49.20
2023-02-06T03:01:12.444Z,49.20
2023-02-06T03:03:39.822Z,49.20
2023-02-06T03:06:06.484Z,49.20
2023-02-06T03:08:55.893Z,49.10
2023-02-06T03:11:22.546Z,49.20
2023-02-06T03:13:51.941Z,49.10
2023-02-06T03:16:26.196Z,49.20
2023-02-06T03:18:52.920Z,49.20
2023-02-06T03:21:22.566Z,49.10
2023-02-06T03:23:49.723Z,49.20
2023-02-06T03:26:17.071Z,49.10
2023-02-06T03:28:45.168Z,49.20
2023-02-06T03:31:13.339Z,49.10
2023-02-06T03:33:42.042Z,49.10
2023-02-06T03:36:11.158Z,49.20
2023-02-06T03:38:37.835Z,49.10
2023-02-06T03:41:04.552Z,49.10
2023-02-06T03:43:31.226Z,49.10
2023-02-06T03:46:00.461Z,49.00
2023-02-06T03:48:28.767Z,49.10
2023-02-06T03:50:56.219Z,49.00
2023-02-06T03:53:22.886Z,49.20
2023-02-06T03:55:50.516Z,49.00
2023-02-06T03:58:17.172Z,49.00
2023-02-06T04:00:43.976Z,49.10
2023-02-06T04:03:10.722Z,49.00
2023-02-06T04:05:37.756Z,49.00
2023-02-06T04:08:04.739Z,49.00
2023-02-06T04:10:31.453Z,48.90
2023-02-06T04:12:58.135Z,49.00
2023-02-06T04:15:24.880Z,49.10
2023-02-06T04:18:00.653Z,48.90
2023-02-06T04:20:28.286Z,48.90
2023-02-06T04:22:55.008Z,49.00
2023-02-06T04:25:21.938Z,48.90
2023-02-06T04:27:48.619Z,48.90
2023-02-06T04:30:17.990Z,48.90
2023-02-06T04:32:44.663Z,48.80
2023-02-06T04:35:11.393Z,48.90
2023-02-06T04:37:38.057Z,48.90
2023-02-06T04:40:05.038Z,48.80
2023-02-06T04:42:31.697Z,48.80
2023-02-06T04:44:58.406Z,48.90
2023-02-06T04:47:25.039Z,48.80
2023-02-06T04:49:51.778Z,48.80
2023-02-06T04:52:18.483Z,48.90
2023-02-06T04:54:45.210Z,48.90
2023-02-06T04:57:11.865Z,48.80
2023-02-06T04:59:38.556Z,48.80
2023-02-06T05:02:05.300Z,48.80
2023-02-06T05:04:31.995Z,48.80
2023-02-06T05:06:58.721Z,48.80
2023-02-06T05:09:25.393Z,48.70
2023-02-06T05:11:52.060Z,48.70
2023-02-06T05:14:18.813Z,48.50
2023-02-06T05:16:45.505Z,48.60
2023-02-06T05:19:12.509Z,48.70
2023-02-06T05:21:39.204Z,48.60
2023-02-06T05:24:05.901Z,48.60
2023-02-06T05:26:32.813Z,49.20
2023-02-06T05:29:00.018Z,48.70
2023-02-06T05:31:26.766Z,48.80
2023-02-06T05:33:53.650Z,48.80
2023-02-06T05:36:20.513Z,48.80
2023-02-06T05:38:48.849Z,48.60
2023-02-06T05:41:15.762Z,48.70
2023-02-06T05:43:42.490Z,49.30
2023-02-06T05:46:09.655Z,48.70
2023-02-06T05:48:36.430Z,48.80
2023-02-06T05:51:03.257Z,48.60
2023-02-06T05:53:29.989Z,48.70
2023-02-06T05:55:57.004Z,48.80
2023-02-06T05:58:23.672Z,48.80
2023-02-06T06:00:50.492Z,48.90
2023-02-06T06:03:17.152Z,48.80
2023-02-06T06:05:43.924Z,48.90
2023-02-06T06:08:10.600Z,48.50
2023-02-06T06:10:37.357Z,48.80
2023-02-06T06:13:04.099Z,48.90
2023-02-06T06:15:30.785Z,49.40
2023-02-06T06:17:57.450Z,49.20
2023-02-06T06:20:24.177Z,48.60
2023-02-06T06:22:50.839Z,49.20
2023-02-06T06:25:17.579Z,49.10
2023-02-06T06:27:44.253Z,49.00
2023-02-06T06:30:11.210Z,49.20
2023-02-06T06:32:37.886Z,49.00
2023-02-06T06:35:04.729Z,49.10
2023-02-06T06:37:31.389Z,49.10
2023-02-06T06:39:58.046Z,49.00
2023-02-06T06:42:24.729Z,49.00
2023-02-06T06:44:51.404Z,49.00
2023-02-06T06:47:18.101Z,49.10
2023-02-06T06:49:44.792Z,49.60
2023-02-06T06:52:23.949Z,49.00
2023-02-06T06:54:52.446Z,48.90
2023-02-06T06:57:19.558Z,48.90
2023-02-06T06:59:48.574Z,48.90
2023-02-06T07:02:15.292Z,48.90
2023-02-06T07:04:42.191Z,48.90
2023-02-06T07:07:09.024Z,48.90
2023-02-06T07:09:35.736Z,48.80
2023-02-06T07:12:02.437Z,48.80
2023-02-06T07:14:29.108Z,48.80
2023-02-06T07:16:56.432Z,48.80
2023-02-06T07:19:23.153Z,48.80
2023-02-06T07:21:49.900Z,48.70
2023-02-06T07:24:16.595Z,48.70
2023-02-06T07:26:43.411Z,48.60
2023-02-06T07:29:10.271Z,48.80
2023-02-06T07:31:36.993Z,48.60
2023-02-06T07:34:04.704Z,48.70
2023-02-06T07:36:31.462Z,48.80
2023-02-06T07:38:58.148Z,48.70
2023-02-06T07:41:25.450Z,48.80
2023-02-06T07:43:54.223Z,48.60
2023-02-06T07:46:21.086Z,48.60
2023-02-06T07:48:47.843Z,48.60
2023-02-06T07:51:15.110Z,48.60
2023-02-06T07:53:41.778Z,48.60
2023-02-06T07:56:12.438Z,48.60
2023-02-06T07:58:39.106Z,48.70
2023-02-06T08:01:06.246Z,48.70
2023-02-06T08:03:32.990Z,48.50
2023-02-06T08:05:59.756Z,48.60
2023-02-06T08:08:26.458Z,48.60
2023-02-06T08:10:53.136Z,48.60
2023-02-06T08:13:21.222Z,48.60
2023-02-06T08:15:47.876Z,48.50
2023-02-06T08:18:14.665Z,48.60
2023-02-06T08:20:41.327Z,48.50
2023-02-06T08:23:08.165Z,48.50
2023-02-06T08:25:35.272Z,48.50
2023-02-06T08:28:02.211Z,48.40
2023-02-06T08:30:29.222Z,48.50
2023-02-06T08:32:56.064Z,48.40
2023-02-06T08:35:22.720Z,48.40
2023-02-06T08:37:49.455Z,48.40
2023-02-06T08:40:16.178Z,48.30
2023-02-06T08:42:52.121Z,48.30
2023-02-06T08:45:18.795Z,48.20
2023-02-06T08:47:45.564Z,48.30
2023-02-06T08:50:12.340Z,48.30
2023-02-06T08:52:40.347Z,48.20
2023-02-06T08:55:07.325Z,48.30
2023-02-06T08:57:34.043Z,48.20
2023-02-06T09:00:00.890Z,48.20
2023-02-06T09:02:27.599Z,48.20
2023-02-06T09:04:54.646Z,48.30
2023-02-06T09:07:27.459Z,48.20
2023-02-06T09:09:54.178Z,48.20
2023-02-06T09:12:21.763Z,48.10
2023-02-06T09:14:48.458Z,48.10
2023-02-06T09:17:21.306Z,48.10
2023-02-06T09:19:49.011Z,48.20
2023-02-06T09:22:15.681Z,48.80
2023-02-06T09:24:42.450Z,48.10
2023-02-06T09:27:09.161Z,48.00
2023-02-06T09:29:35.874Z,48.00
2023-02-06T09:32:02.541Z,48.10
2023-02-06T09:34:32.286Z,48.10
2023-02-06T09:37:01.330Z,48.00
2023-02-06T09:39:28.247Z,48.10
2023-02-06T09:42:09.342Z,48.00
2023-02-06T09:44:37.481Z,48.00
2023-02-06T09:47:06.323Z,48.00
2023-02-06T09:49:40.487Z,48.00
2023-02-06T09:52:13.469Z,48.00
2023-02-06T09:54:55.596Z,48.00
2023-02-06T09:57:31.416Z,48.10
2023-02-06T09:59:59.556Z,48.00
2023-02-06T10:02:32.423Z,48.00
2023-02-06T10:04:59.107Z,48.00
2023-02-06T10:07:25.886Z,48.00
2023-02-06T10:09:54.449Z,48.00
2023-02-06T10:12:28.624Z,48.00
2023-02-06T10:15:15.071Z,47.90
2023-02-06T10:17:52.658Z,48.00
2023-02-06T10:20:25.412Z,47.90
2023-02-06T10:23:04.349Z,48.00
2023-02-06T10:25:32.614Z,48.00
2023-02-06T10:28:01.542Z,47.90
2023-02-06T10:30:31.342Z,48.00
2023-02-06T10:33:25.945Z,47.90
2023-02-06T10:36:11.679Z,48.00
2023-02-06T10:38:38.963Z,47.90
2023-02-06T10:41:21.218Z,48.50
2023-02-06T10:43:49.047Z,48.00
2023-02-06T10:46:34.594Z,47.90
2023-02-06T10:49:15.730Z,48.00
2023-02-06T10:51:43.548Z,47.90
2023-02-06T10:54:18.480Z,47.90
2023-02-06T10:56:45.524Z,47.90
2023-02-06T10:59:22.412Z,48.00
2023-02-06T11:01:49.488Z,47.90
2023-02-06T11:04:39.601Z,47.90
2023-02-06T11:07:14.538Z,47.90
2023-02-06T11:09:41.235Z,47.90
2023-02-06T11:12:11.901Z,47.90
2023-02-06T11:14:38.830Z,48.00
2023-02-06T11:17:05.477Z,47.90
2023-02-06T11:19:33.950Z,47.90
2023-02-06T11:22:13.617Z,47.80
2023-02-06T11:24:57.663Z,47.80
2023-02-06T11:27:24.354Z,47.80
2023-02-06T11:29:52.160Z,47.70
2023-02-06T11:32:36.703Z,47.70
2023-02-06T11:35:06.676Z,47.80
2023-02-06T11:37:37.463Z,47.80
2023-02-06T11:40:19.837Z,47.70
2023-02-06T11:42:47.067Z,47.80
2023-02-06T11:45:22.891Z,47.70
2023-02-06T11:47:49.474Z,47.80
2023-02-06T11:50:16.147Z,47.70
2023-02-06T11:52:44.595Z,47.80
2023-02-06T11:55:21.645Z,47.80
2023-02-06T11:58:00.914Z,47.80
2023-02-06T12:00:27.550Z,47.80
2023-02-06T12:02:54.567Z,47.70
2023-02-06T12:05:21.945Z,47.70
2023-02-06T12:07:51.946Z,47.70
2023-02-06T12:10:19.088Z,47.70
2023-02-06T12:12:47.180Z,47.80
2023-02-06T12:15:48.190Z,47.80
2023-02-06T12:18:22.476Z,47.70
2023-02-06T12:20:50.419Z,47.70
2023-02-06T12:23:22.384Z,47.70
2023-02-06T12:25:49.777Z,47.80
2023-02-06T12:28:16.425Z,47.70
2023-02-06T12:30:51.537Z,47.70
2023-02-06T12:33:21.164Z,47.70
2023-02-06T12:35:55.834Z,47.70
2023-02-06T12:38:42.945Z,48.30
2023-02-06T12:41:14.760Z,47.70
2023-02-06T12:43:41.516Z,47.70
2023-02-06T12:46:10.536Z,47.70
2023-02-06T12:48:50.917Z,47.70
2023-02-06T12:51:50.177Z,47.70
2023-02-06T12:54:21.383Z,47.70
2023-02-06T12:56:49.333Z,47.60
2023-02-06T12:59:16.063Z,47.70
2023-02-06T13:02:01.728Z,47.50
2023-02-06T13:04:29.880Z,47.60
2023-02-06T13:06:57.724Z,47.70
2023-02-06T13:09:28.953Z,47.60
2023-02-06T13:12:05.931Z,47.60
2023-02-06T13:14:33.071Z,47.70
2023-02-06T13:17:06.782Z,47.70
2023-02-06T13:19:36.333Z,47.70
2023-02-06T13:22:09.105Z,47.70
2023-02-06T13:24:36.069Z,47.60
2023-02-06T13:27:08.853Z,47.60
2023-02-06T13:29:42.796Z,47.60
2023-02-06T13:32:12.533Z,47.60
2023-02-06T13:34:42.158Z,47.50
2023-02-06T13:37:27.869Z,47.60
2023-02-06T13:40:14.816Z,47.50
2023-02-06T13:42:49.106Z,47.60
2023-02-06T13:45:23.416Z,47.50
2023-02-06T13:47:59.265Z,47.60
2023-02-06T13:50:32.233Z,47.50
2023-02-06T13:53:17.470Z,47.60
2023-02-06T13:55:47.069Z,47.50
2023-02-06T13:58:36.813Z,47.40
2023-02-06T14:01:03.831Z,47.60
2023-02-06T14:03:31.452Z,47.60
2023-02-06T14:06:07.408Z,47.60
2023-02-06T14:08:40.774Z,47.50
2023-02-06T14:11:29.105Z,47.50
2023-02-06T14:14:17.307Z,47.50
2023-02-06T14:16:49.506Z,47.50
2023-02-06T14:19:22.437Z,47.50
2023-02-06T14:22:15.241Z,47.60
2023-02-06T14:25:04.207Z,47.70
2023-02-06T14:27:35.123Z,47.50
2023-02-06T14:30:07.864Z,47.60
2023-02-06T14:32:37.653Z,47.60
2023-02-06T14:35:23.079Z,47.60
2023-02-06T14:37:49.656Z,47.60
2023-02-06T14:40:20.465Z,47.60
2023-02-06T14:42:47.194Z,47.60
2023-02-06T14:45:31.930Z,47.40
2023-02-06T14:48:00.960Z,47.60
2023-02-06T14:50:35.052Z,47.50
2023-02-06T14:53:03.453Z,47.50
2023-02-06T14:55:31.140Z,47.60
2023-02-06T14:57:57.998Z,47.40
2023-02-06T15:00:26.063Z,47.50
2023-02-06T15:03:04.848Z,47.50
2023-02-06T15:05:32.015Z,47.50
2023-02-06T15:07:59.500Z,47.30
2023-02-06T15:10:30.407Z,47.20
2023-02-06T15:12:56.986Z,47.40
2023-02-06T15:15:24.509Z,47.60
2023-02-06T15:18:07.404Z,47.40
2023-02-06T15:20:40.981Z,47.50
2023-02-06T15:23:17.584Z,47.50
2023-02-06T15:25:59.441Z,47.60
2023-02-06T15:28:27.449Z,47.60
2023-02-06T15:30:55.220Z,47.60
2023-02-06T15:33:22.855Z,47.60
2023-02-06T15:35:52.947Z,47.60
2023-02-06T15:38:19.817Z,47.70
2023-02-06T15:40:47.552Z,47.70
2023-02-06T15:43:22.575Z,47.60
2023-02-06T15:45:49.916Z,47.60
2023-02-06T15:48:21.107Z,47.70
2023-02-06T15:50:56.806Z,47.60
2023-02-06T15:53:30.740Z,47.60
2023-02-06T15:55:57.407Z,47.60
2023-02-06T15:58:24.733Z,47.60
2023-02-06T16:00:52.914Z,47.60
2023-02-06T16:03:20.888Z,47.60
2023-02-06T16:05:47.523Z,47.60
2023-02-06T16:08:20.984Z,47.60
2023-02-06T16:10:50.441Z,47.60
2023-02-06T16:13:20.751Z,47.70
2023-02-06T16:16:06.809Z,47.60
2023-02-06T16:18:34.410Z,47.60
2023-02-06T16:21:18.826Z,47.60
2023-02-06T16:23:46.815Z,47.70
2023-02-06T16:26:17.679Z,47.70
2023-02-06T16:28:53.447Z,47.70
2023-02-06T16:31:20.374Z,47.70
2023-02-06T16:33:50.030Z,47.70
2023-02-06T16:36:20.150Z,47.70
2023-02-06T16:39:02.743Z,47.70
2023-02-06T16:41:38.184Z,47.70
2023-02-06T16:44:07.154Z,47.70
2023-02-06T16:46:33.890Z,47.60
2023-02-06T16:49:00.731Z,47.70
2023-02-06T16:51:28.442Z,47.70
2023-02-06T16:53:55.224Z,47.70
2023-02-06T16:56:22.003Z,47.60
2023-02-06T16:58:48.874Z,47.70
2023-02-06T17:01:22.213Z,48.30
2023-02-06T17:03:49.342Z,47.60
2023-02-06T17:06:18.042Z,47.70
2023-02-06T17:08:44.787Z,47.50
2023-02-06T17:11:11.577Z,47.70
2023-02-06T17:13:38.286Z,47.70
2023-02-06T17:16:05.250Z,47.60
2023-02-06T17:18:32.080Z,47.70
2023-02-06T17:20:58.830Z,47.70
2023-02-06T17:23:25.500Z,47.70
2023-02-06T17:25:55.235Z,47.60
2023-02-06T17:28:22.004Z,47.70
2023-02-06T17:30:50.855Z,47.90
2023-02-06T17:33:17.844Z,47.70
2023-02-06T17:35:44.566Z,47.80
2023-02-06T17:38:11.317Z,47.70
2023-02-06T17:40:40.028Z,47.70
2023-02-06T17:43:10.168Z,47.90
2023-02-06T17:45:37.765Z,47.80
2023-02-06T17:48:04.694Z,47.80
2023-02-06T17:50:31.514Z,47.70
2023-02-06T17:52:59.611Z,47.80
2023-02-06T17:55:32.671Z,47.70
2023-02-06T17:57:59.639Z,47.70
2023-02-06T18:00:28.376Z,47.90
2023-02-06T18:02:56.043Z,47.70
2023-02-06T18:05:23.046Z,47.80
2023-02-06T18:07:51.955Z,47.40
2023-02-06T18:10:20.905Z,47.90
2023-02-06T18:12:47.699Z,48.20
2023-02-06T18:15:14.817Z,48.40
2023-02-06T18:17:41.866Z,48.70
2023-02-06T18:20:09.088Z,49.00
2023-02-06T18:22:41.314Z,49.50
2023-02-06T18:25:11.825Z,49.90
2023-02-06T18:27:39.598Z,49.20
2023-02-06T18:30:09.081Z,49.20
2023-02-06T18:32:37.732Z,49.10
2023-02-06T18:35:04.778Z,49.30
2023-02-06T18:37:32.412Z,48.20
2023-02-06T18:39:59.798Z,45.40
2023-02-06T18:42:45.565Z,48.00
2023-02-06T18:45:13.044Z,48.50
2023-02-06T18:47:56.170Z,48.60
2023-02-06T18:50:23.229Z,48.50
2023-02-06T18:52:50.221Z,48.60
2023-02-06T18:55:17.752Z,48.40
2023-02-06T18:57:45.026Z,48.50
2023-02-06T19:00:13.831Z,48.70
2023-02-06T19:02:40.748Z,48.50
2023-02-06T19:05:08.980Z,48.60
2023-02-06T19:07:38.028Z,48.50
2023-02-06T19:10:06.486Z,48.60
2023-02-06T19:12:33.338Z,48.60
2023-02-06T19:15:02.379Z,48.50
2023-02-06T19:17:32.816Z,48.60
2023-02-06T19:20:00.209Z,48.40
2023-02-06T19:22:26.981Z,48.40
2023-02-06T19:24:53.996Z,48.60
2023-02-06T19:27:21.369Z,48.50
2023-02-06T19:29:48.807Z,48.70
2023-02-06T19:32:15.563Z,48.50
2023-02-06T19:34:44.741Z,48.50
2023-02-06T19:37:12.586Z,48.50
2023-02-06T19:39:40.685Z,48.50
2023-02-06T19:42:09.302Z,48.60
2023-02-06T19:44:37.390Z,48.40
2023-02-06T19:47:04.786Z,48.60
2023-02-06T19:49:33.044Z,48.40
2023-02-06T19:52:03.176Z,48.50
2023-02-06T19:54:29.843Z,48.60
2023-02-06T19:56:57.082Z,48.40
2023-02-06T19:59:25.086Z,48.60
2023-02-06T20:01:56.021Z,48.50
2023-02-06T20:04:27.090Z,48.50
2023-02-06T20:06:54.904Z,48.60
2023-02-06T20:09:22.950Z,48.50
2023-02-06T20:11:50.042Z,48.50
2023-02-06T20:14:18.587Z,48.50
2023-02-06T20:16:46.628Z,48.50
2023-02-06T20:19:15.587Z,48.50
2023-02-06T20:21:43.814Z,48.40
2023-02-06T20:24:11.645Z,48.50
2023-02-06T20:26:39.013Z,48.40
2023-02-06T20:29:07.324Z,48.50
2023-02-06T20:31:34.691Z,48.50
2023-02-06T20:34:01.696Z,48.40
2023-02-06T20:36:30.016Z,48.50
2023-02-06T20:38:57.527Z,48.30
2023-02-06T20:41:25.224Z,48.50
2023-02-06T20:43:51.797Z,48.30
2023-02-06T20:46:19.567Z,48.40
2023-02-06T20:48:46.729Z,48.40
2023-02-06T20:51:13.723Z,48.30
2023-02-06T20:53:40.370Z,48.30
2023-02-06T20:56:08.680Z,48.80
2023-02-06T20:58:35.389Z,48.30
2023-02-06T21:01:02.062Z,48.40
2023-02-06T21:03:29.127Z,48.20
2023-02-06T21:05:59.017Z,48.30
2023-02-06T21:08:25.657Z,48.20
2023-02-06T21:10:52.337Z,48.20
2023-02-06T21:13:19.046Z,48.50
2023-02-06T21:15:56.494Z,48.80
2023-02-06T21:18:23.286Z,48.30
2023-02-06T21:20:50.078Z,48.30
2023-02-06T21:23:16.928Z,48.30
2023-02-06T21:25:49.407Z,48.20
2023-02-06T21:28:16.009Z,48.20
2023-02-06T21:30:42.677Z,48.10
2023-02-06T21:33:09.435Z,48.00
2023-02-06T21:35:38.697Z,48.10
2023-02-06T21:38:05.276Z,48.00
2023-02-06T21:40:31.902Z,48.00
2023-02-06T21:42:58.495Z,48.00
2023-02-06T21:45:25.089Z,48.50
2023-02-06T21:47:51.656Z,48.00
2023-02-06T21:50:18.287Z,48.00
2023-02-06T21:52:44.855Z,48.00
2023-02-06T21:55:11.695Z,48.00
2023-02-06T21:57:38.290Z,48.50
2023-02-06T22:00:05.081Z,48.10
2023-02-06T22:02:31.706Z,47.90
2023-02-06T22:04:59.700Z,48.00
2023-02-06T22:07:26.326Z,47.90
2023-02-06T22:09:52.905Z,48.50
2023-02-06T22:12:19.510Z,48.00
2023-02-06T22:14:46.313Z,48.10
2023-02-06T22:17:12.913Z,48.40
2023-02-06T22:19:39.546Z,47.90
2023-02-06T22:22:06.136Z,47.90
2023-02-06T22:24:32.887Z,48.00
2023-02-06T22:26:59.546Z,47.90
2023-02-06T22:29:26.153Z,47.90
2023-02-06T22:31:52.838Z,47.90
2023-02-06T22:34:19.884Z,47.90
2023-02-06T22:36:46.550Z,48.00
2023-02-06T22:39:13.984Z,47.90
2023-02-06T22:41:44.251Z,48.00
2023-02-06T22:44:12.498Z,47.90
2023-02-06T22:46:39.395Z,47.90
2023-02-06T22:49:06.403Z,47.90
2023-02-06T22:51:33.145Z,48.00
2023-02-06T22:54:00.559Z,47.90
2023-02-06T22:56:31.538Z,47.90
2023-02-06T22:59:04.304Z,47.90
2023-02-06T23:01:32.900Z,47.90
2023-02-06T23:03:59.700Z,47.90
2023-02-06T23:06:26.936Z,47.90
2023-02-06T23:08:53.864Z,47.90
2023-02-06T23:11:20.540Z,47.80
2023-02-06T23:13:50.311Z,47.90
2023-02-06T23:16:17.008Z,47.90
2023-02-06T23:18:43.624Z,47.90
2023-02-06T23:21:11.973Z,48.00
2023-02-06T23:23:38.804Z,47.90
2023-02-06T23:26:10.303Z,48.20
2023-02-06T23:28:37.038Z,48.00
2023-02-06T23:31:03.771Z,47.90
2023-02-06T23:33:30.456Z,47.90
2023-02-06T23:36:02.005Z,47.90
2023-02-06T23:38:28.576Z,47.80
2023-02-06T23:40:55.143Z,47.90
2023-02-06T23:43:21.712Z,47.70
2023-02-06T23:45:48.307Z,47.90
2023-02-06T23:48:14.941Z,47.80
2023-02-06T23:50:42.061Z,47.70
2023-02-06T23:53:08.681Z,47.80
2023-02-06T23:55:35.484Z,48.30
2023-02-06T23:58:02.284Z,47.80
